Time;durP1;ratioP1;P1;durP2;ratioP2;P2;SDS_P1;SDS_P2;PMS_P1;PMS_P2;Temp;Humidity;BMP_temperature;BMP_pressure;BME280_temperature;BME280_humidity;BME280_pressure;Samples;Min_cycle;Max_cycle;Signal;HPM_P1;HPM_P2
2023/12/05 00:00:49;;;;;;;14.88;12.30;;;;;;;;;;5050721;28;20028;-62
2023/12/05 00:03:15;;;;;;;14.77;12.20;;;;;;;;;;5069973;28;20088;-61
2023/12/05 00:05:41;;;;;;;14.90;12.50;;;;;;;;;;5068169;28;20028;-61
2023/12/05 00:08:07;;;;;;;15.10;13.10;;;;;;;;;;5069496;28;20479;-60
2023/12/05 00:10:33;;;;;;;15.05;12.98;;;;;;;;;;5068004;28;20486;-60
2023/12/05 00:13:00;;;;;;;14.82;12.23;;;;;;;;;;5069415;28;20449;-60
2023/12/05 00:15:26;;;;;;;14.82;12.25;;;;;;;;;;5069147;28;20044;-61
2023/12/05 00:17:52;;;;;;;14.80;12.23;;;;;;;;;;5069147;28;20103;-61
2023/12/05 00:20:18;;;;;;;14.80;12.30;;;;;;;;;;5068945;28;20078;-60
2023/12/05 00:22:44;;;;;;;14.70;11.95;;;;;;;;;;5069447;28;20021;-61
2023/12/05 00:25:12;;;;;;;15.95;13.00;;;;;;;;;;5069167;28;20040;-63
2023/12/05 00:27:38;;;;;;;14.82;12.05;;;;;;;;;;5069338;28;20024;-61
2023/12/05 00:30:05;;;;;;;14.80;12.05;;;;;;;;;;5069070;28;20029;-62
2023/12/05 00:32:31;;;;;;;14.80;12.00;;;;;;;;;;5069896;28;20398;-61
2023/12/05 00:34:57;;;;;;;14.80;12.05;;;;;;;;;;5051463;28;20024;-61
2023/12/05 00:37:23;;;;;;;14.60;11.82;;;;;;;;;;5069148;28;20028;-62
2023/12/05 00:39:49;;;;;;;16.25;11.80;;;;;;;;;;5069180;28;20422;-62
2023/12/05 00:42:15;;;;;;;14.63;11.77;;;;;;;;;;5069163;28;20048;-60
2023/12/05 00:44:41;;;;;;;14.60;11.77;;;;;;;;;;5069308;28;20535;-60
2023/12/05 00:47:07;;;;;;;14.75;12.00;;;;;;;;;;5051577;28;20502;-60
2023/12/05 00:49:34;;;;;;;14.70;11.65;;;;;;;;;;5069309;28;20058;-60
2023/12/05 00:52:00;;;;;;;14.80;12.38;;;;;;;;;;5068807;28;20023;-61
2023/12/05 00:54:26;;;;;;;14.70;11.75;;;;;;;;;;5051214;28;20024;-62
2023/12/05 00:56:52;;;;;;;14.63;11.70;;;;;;;;;;5069205;28;20021;-61
2023/12/05 00:59:18;;;;;;;15.48;13.32;;;;;;;;;;5069060;28;20095;-62
2023/12/05 01:01:44;;;;;;;14.60;11.60;;;;;;;;;;5050605;28;20028;-62
2023/12/05 01:04:10;;;;;;;14.45;11.15;;;;;;;;;;5069067;28;20063;-59
2023/12/05 01:06:36;;;;;;;14.57;11.50;;;;;;;;;;5050860;28;20017;-61
2023/12/05 01:09:03;;;;;;;14.38;11.05;;;;;;;;;;5051049;28;20032;-62
2023/12/05 01:11:31;;;;;;;14.63;11.60;;;;;;;;;;5068677;28;20021;-61
2023/12/05 01:13:57;;;;;;;14.85;11.85;;;;;;;;;;5072720;28;20028;-60
2023/12/05 01:16:23;;;;;;;14.63;11.70;;;;;;;;;;5072982;28;20012;-61
2023/12/05 01:18:49;;;;;;;14.20;10.52;;;;;;;;;;5072401;28;20089;-61
2023/12/05 01:21:15;;;;;;;14.40;11.00;;;;;;;;;;5072120;28;20398;-61
2023/12/05 01:23:41;;;;;;;14.38;11.13;;;;;;;;;;5072445;28;20035;-61
2023/12/05 01:26:07;;;;;;;14.40;11.10;;;;;;;;;;5072287;28;20035;-62
2023/12/05 01:28:33;;;;;;;14.45;11.00;;;;;;;;;;5072346;28;20028;-59
2023/12/05 01:30:59;;;;;;;14.35;11.02;;;;;;;;;;5072084;28;20029;-61
2023/12/05 01:33:25;;;;;;;14.50;11.23;;;;;;;;;;5072317;28;20470;-61
2023/12/05 01:35:51;;;;;;;14.50;11.50;;;;;;;;;;5072111;28;20027;-60
2023/12/05 01:38:18;;;;;;;14.85;11.77;;;;;;;;;;5054357;28;20025;-60
2023/12/05 01:40:44;;;;;;;14.60;11.50;;;;;;;;;;5071808;28;20119;-61
2023/12/05 01:43:10;;;;;;;14.95;11.70;;;;;;;;;;5072404;28;20021;-62
2023/12/05 01:45:37;;;;;;;14.50;11.20;;;;;;;;;;5074552;28;20104;-58
2023/12/05 01:48:04;;;;;;;14.40;10.93;;;;;;;;;;5073660;28;20036;-58
2023/12/05 01:50:30;;;;;;;14.48;11.18;;;;;;;;;;5071851;28;20028;-61
2023/12/05 01:52:58;;;;;;;15.63;12.98;;;;;;;;;;5071896;28;20061;-61
2023/12/05 01:55:25;;;;;;;14.50;11.13;;;;;;;;;;5054002;28;20028;-61
2023/12/05 01:57:52;;;;;;;14.50;11.17;;;;;;;;;;5071849;28;20079;-61
2023/12/05 02:00:18;;;;;;;14.40;11.00;;;;;;;;;;5053909;28;20059;-60
2023/12/05 02:02:45;;;;;;;14.50;11.25;;;;;;;;;;5045739;28;20033;-60
2023/12/05 02:05:12;;;;;;;14.50;11.40;;;;;;;;;;5071643;28;20025;-62
2023/12/05 02:07:38;;;;;;;14.80;11.60;;;;;;;;;;5053742;28;20028;-62
2023/12/05 02:10:06;;;;;;;14.50;11.13;;;;;;;;;;5071430;28;20494;-60
2023/12/05 02:12:32;;;;;;;14.40;11.00;;;;;;;;;;5071496;28;20042;-62
2023/12/05 02:14:58;;;;;;;14.60;11.32;;;;;;;;;;5071505;28;20021;-61
2023/12/05 02:17:27;;;;;;;14.50;11.40;;;;;;;;;;5071430;28;20100;-63
2023/12/05 02:19:57;;;;;;;14.38;10.88;;;;;;;;;;5053048;28;20024;-59
2023/12/05 02:22:36;;;;;;;15.25;13.48;;;;;;;;;;5053242;28;20494;-60
2023/12/05 02:25:40;;;;;;;14.48;11.18;;;;;;;;;;5063188;28;20108;-60
2023/12/05 02:28:06;;;;;;;14.40;10.90;;;;;;;;;;5002558;28;20157;-61
2023/12/05 02:30:32;;;;;;;15.40;12.38;;;;;;;;;;4992055;28;20036;-62
2023/12/05 02:32:58;;;;;;;14.50;11.43;;;;;;;;;;5021328;28;20124;-61
2023/12/05 02:35:24;;;;;;;14.50;11.15;;;;;;;;;;5071581;28;20028;-61
2023/12/05 02:37:53;;;;;;;14.50;11.30;;;;;;;;;;5070679;28;20035;-61
2023/12/05 02:40:19;;;;;;;;;;;;;;;;;;5071302;28;20582;-61
2023/12/05 02:42:47;;;;;;;14.45;11.18;;;;;;;;;;5053133;28;19952;-63
2023/12/05 02:45:17;;;;;;;16.08;12.10;;;;;;;;;;5070958;28;20052;-60
2023/12/05 02:47:45;;;;;;;17.27;12.25;;;;;;;;;;5070631;28;20028;-62
2023/12/05 02:50:11;;;;;;;14.93;11.35;;;;;;;;;;5070385;28;20028;-62
2023/12/05 02:52:37;;;;;;;14.30;10.80;;;;;;;;;;5052777;28;20067;-60
2023/12/05 02:55:03;;;;;;;14.50;10.98;;;;;;;;;;5070678;28;20028;-61
2023/12/05 02:57:29;;;;;;;14.57;11.48;;;;;;;;;;5052352;28;20033;-56
2023/12/05 02:59:55;;;;;;;14.38;10.88;;;;;;;;;;5070119;28;20047;-60
2023/12/05 03:02:21;;;;;;;22.95;13.38;;;;;;;;;;5070123;28;20025;-62
2023/12/05 03:04:47;;;;;;;14.52;11.30;;;;;;;;;;5070360;28;20430;-62
2023/12/05 03:07:13;;;;;;;14.60;11.40;;;;;;;;;;5052279;28;20119;-61
2023/12/05 03:09:40;;;;;;;14.80;11.40;;;;;;;;;;5069972;28;20024;-61
2023/12/05 03:12:06;;;;;;;14.50;11.38;;;;;;;;;;5069963;28;20020;-61
2023/12/05 03:14:32;;;;;;;14.50;11.27;;;;;;;;;;5070058;28;20386;-60
2023/12/05 03:16:58;;;;;;;14.40;11.18;;;;;;;;;;5051848;28;20204;-62
2023/12/05 03:19:24;;;;;;;14.40;11.18;;;;;;;;;;5069630;28;20063;-60
2023/12/05 03:21:50;;;;;;;14.60;11.48;;;;;;;;;;5069376;28;20158;-62
2023/12/05 03:24:16;;;;;;;17.63;14.23;;;;;;;;;;5069827;28;20020;-61
2023/12/05 03:26:42;;;;;;;14.50;11.25;;;;;;;;;;5069777;28;20226;-61
2023/12/05 03:29:08;;;;;;;14.60;11.57;;;;;;;;;;5069725;28;20035;-60
2023/12/05 03:31:35;;;;;;;14.63;11.77;;;;;;;;;;5069694;28;20064;-61
2023/12/05 03:34:02;;;;;;;14.68;11.65;;;;;;;;;;5052187;28;20394;-59
2023/12/05 03:36:27;;;;;;;14.38;10.77;;;;;;;;;;5069764;28;20024;-61
2023/12/05 03:38:53;;;;;;;16.67;12.10;;;;;;;;;;5069492;28;20028;-61
2023/12/05 03:41:19;;;;;;;14.30;10.77;;;;;;;;;;5069620;28;20115;-61
2023/12/05 03:43:45;;;;;;;14.60;11.50;;;;;;;;;;5069552;28;20097;-61
2023/12/05 03:46:11;;;;;;;14.30;10.82;;;;;;;;;;5069695;28;20024;-61
2023/12/05 03:48:37;;;;;;;14.38;10.88;;;;;;;;;;5069365;28;20056;-61
2023/12/05 03:51:03;;;;;;;15.32;11.35;;;;;;;;;;5071288;28;20025;-59
2023/12/05 03:53:29;;;;;;;15.35;11.98;;;;;;;;;;5071294;28;20493;-61
2023/12/05 03:55:55;;;;;;;15.95;12.85;;;;;;;;;;5069044;28;20544;-60
2023/12/05 03:58:21;;;;;;;14.38;10.88;;;;;;;;;;5069201;28;20060;-61
2023/12/05 04:00:47;;;;;;;14.45;11.10;;;;;;;;;;5069006;28;20162;-60
2023/12/05 04:03:14;;;;;;;14.90;11.48;;;;;;;;;;5069595;28;20075;-61
2023/12/05 04:05:40;;;;;;;14.32;10.85;;;;;;;;;;5069178;28;20036;-62
2023/12/05 04:08:06;;;;;;;15.43;12.32;;;;;;;;;;5069056;28;20106;-61
2023/12/05 04:10:32;;;;;;;14.60;10.90;;;;;;;;;;5068533;28;20028;-59
2023/12/05 04:12:58;;;;;;;14.60;11.00;;;;;;;;;;5061645;28;20063;-60
2023/12/05 04:15:24;;;;;;;14.80;11.20;;;;;;;;;;5069260;28;20044;-61
2023/12/05 04:17:50;;;;;;;14.40;10.95;;;;;;;;;;5069251;28;20492;-60
2023/12/05 04:20:17;;;;;;;14.30;10.93;;;;;;;;;;5051045;28;20039;-61
2023/12/05 04:22:43;;;;;;;15.27;11.27;;;;;;;;;;5069309;28;20490;-61
2023/12/05 04:25:09;;;;;;;14.40;10.90;;;;;;;;;;5069101;28;20020;-60
2023/12/05 04:27:35;;;;;;;15.15;12.20;;;;;;;;;;5069046;28;20058;-61
2023/12/05 04:30:01;;;;;;;14.48;10.98;;;;;;;;;;5068777;28;20101;-60
2023/12/05 04:32:27;;;;;;;14.55;11.32;;;;;;;;;;5069005;28;20024;-61
2023/12/05 04:34:53;;;;;;;14.45;11.02;;;;;;;;;;5051282;28;20382;-60
2023/12/05 04:37:19;;;;;;;14.38;11.20;;;;;;;;;;5068834;28;20091;-58
2023/12/05 04:39:45;;;;;;;14.55;11.15;;;;;;;;;;5068420;28;20387;-62
2023/12/05 04:42:11;;;;;;;14.57;11.30;;;;;;;;;;5068745;28;20108;-62
2023/12/05 04:44:37;;;;;;;15.23;12.07;;;;;;;;;;5069151;28;20078;-61
2023/12/05 04:47:03;;;;;;;14.57;11.30;;;;;;;;;;5069589;28;20488;-61
2023/12/05 04:49:30;;;;;;;14.63;11.93;;;;;;;;;;5054953;28;20025;-60
2023/12/05 04:51:56;;;;;;;14.70;11.57;;;;;;;;;;5047103;28;20013;-61
2023/12/05 04:54:22;;;;;;;14.50;11.25;;;;;;;;;;5073047;28;20039;-61
2023/12/05 04:56:48;;;;;;;14.60;11.43;;;;;;;;;;5072883;28;20094;-62
2023/12/05 04:59:14;;;;;;;14.57;11.60;;;;;;;;;;5072819;28;20074;-59
2023/12/05 05:01:40;;;;;;;14.60;11.65;;;;;;;;;;5072923;28;20020;-61
2023/12/05 05:04:06;;;;;;;15.15;11.82;;;;;;;;;;5073369;28;20051;-61
2023/12/05 05:06:32;;;;;;;14.80;12.20;;;;;;;;;;5072923;28;20024;-61
2023/12/05 05:08:58;;;;;;;14.80;12.00;;;;;;;;;;5072579;28;20116;-61
2023/12/05 05:11:24;;;;;;;14.88;12.05;;;;;;;;;;5072708;28;20112;-57
2023/12/05 05:13:50;;;;;;;14.80;12.10;;;;;;;;;;5072617;28;20052;-61
2023/12/05 05:16:16;;;;;;;14.80;12.00;;;;;;;;;;5072682;28;20078;-63
2023/12/05 05:18:42;;;;;;;14.73;11.88;;;;;;;;;;5072348;28;20110;-62
2023/12/05 05:21:08;;;;;;;15.35;13.05;;;;;;;;;;5072466;28;20024;-62
2023/12/05 05:23:34;;;;;;;14.98;12.30;;;;;;;;;;5072822;28;20020;-61
2023/12/05 05:26:00;;;;;;;14.90;12.25;;;;;;;;;;5072554;28;20025;-62
2023/12/05 05:28:26;;;;;;;15.00;12.80;;;;;;;;;;5054214;28;20032;-61
2023/12/05 05:30:54;;;;;;;14.98;12.48;;;;;;;;;;5072411;28;20029;-59
2023/12/05 05:33:23;;;;;;;15.10;12.70;;;;;;;;;;5054615;28;20051;-61
2023/12/05 05:35:49;;;;;;;15.00;12.35;;;;;;;;;;5072501;28;20024;-60
2023/12/05 05:38:15;;;;;;;15.95;13.57;;;;;;;;;;5072605;28;20031;-60
2023/12/05 05:40:42;;;;;;;15.10;12.77;;;;;;;;;;5084551;22;20793;-49
2023/12/05 05:43:08;;;;;;;15.07;12.68;;;;;;;;;;5052890;28;20119;-45
2023/12/05 05:45:34;;;;;;;14.93;12.70;;;;;;;;;;5052549;28;20511;-47
2023/12/05 05:48:00;;;;;;;15.00;12.70;;;;;;;;;;5052550;28;20074;-50
2023/12/05 05:50:26;;;;;;;15.00;12.73;;;;;;;;;;5052050;28;20032;-44
2023/12/05 05:52:52;;;;;;;14.88;12.40;;;;;;;;;;5052609;28;20025;-47
2023/12/05 05:55:24;;;;;;;15.20;13.40;;;;;;;;;;5052323;28;20490;-46
2023/12/05 05:57:50;;;;;;;15.27;13.15;;;;;;;;;;5052431;28;20032;-45
2023/12/05 06:00:17;;;;;;;15.45;13.10;;;;;;;;;;5051882;28;20372;-46
2023/12/05 06:02:43;;;;;;;16.17;14.48;;;;;;;;;;5052319;28;20079;-52
2023/12/05 06:05:09;;;;;;;15.30;13.30;;;;;;;;;;5052427;28;20471;-46
2023/12/05 06:07:35;;;;;;;15.20;12.98;;;;;;;;;;5052114;28;20036;-47
2023/12/05 06:10:01;;;;;;;15.30;13.30;;;;;;;;;;5052016;28;20029;-50
2023/12/05 06:12:27;;;;;;;15.10;13.18;;;;;;;;;;5051822;28;20691;-47
2023/12/05 06:14:53;;;;;;;15.20;13.02;;;;;;;;;;5033834;28;20013;-44
2023/12/05 06:17:19;;;;;;;15.13;13.07;;;;;;;;;;5052039;28;20025;-44
2023/12/05 06:19:45;;;;;;;15.20;13.20;;;;;;;;;;5052191;28;20036;-45
2023/12/05 06:22:12;;;;;;;15.23;13.23;;;;;;;;;;5051921;28;20491;-46
2023/12/05 06:24:38;;;;;;;15.30;13.50;;;;;;;;;;5051627;28;20083;-47
2023/12/05 06:27:04;;;;;;;15.30;13.15;;;;;;;;;;5051417;28;20025;-46
2023/12/05 06:29:30;;;;;;;15.30;13.20;;;;;;;;;;5051324;28;20029;-46
2023/12/05 06:31:56;;;;;;;15.20;13.20;;;;;;;;;;5050944;28;20047;-45
2023/12/05 06:34:23;;;;;;;15.20;12.95;;;;;;;;;;5051341;28;20021;-43
2023/12/05 06:36:49;;;;;;;15.15;13.05;;;;;;;;;;5050708;28;20017;-59
2023/12/05 06:39:15;;;;;;;15.30;13.15;;;;;;;;;;5050625;28;20049;-52
2023/12/05 06:41:41;;;;;;;15.27;13.20;;;;;;;;;;5052777;28;20088;-52
2023/12/05 06:44:07;;;;;;;15.40;13.52;;;;;;;;;;5056577;28;20449;-56
2023/12/05 06:46:33;;;;;;;15.38;13.52;;;;;;;;;;5056101;28;20028;-53
2023/12/05 06:49:00;;;;;;;15.15;13.30;;;;;;;;;;5060245;28;20025;-54
2023/12/05 06:51:26;;;;;;;15.30;13.23;;;;;;;;;;5049359;28;20088;-54
2023/12/05 06:53:52;;;;;;;16.38;14.68;;;;;;;;;;5063845;28;20059;-54
2023/12/05 06:56:22;;;;;;;15.40;13.63;;;;;;;;;;5069820;28;20116;-56
2023/12/05 06:58:48;;;;;;;15.40;13.45;;;;;;;;;;5070072;28;20202;-52
2023/12/05 07:01:14;;;;;;;15.95;14.25;;;;;;;;;;5066181;28;20028;-55
2023/12/05 07:03:40;;;;;;;15.70;14.00;;;;;;;;;;5033296;28;20029;-49
2023/12/05 07:06:06;;;;;;;15.60;13.90;;;;;;;;;;5050732;28;20025;-49
2023/12/05 07:08:32;;;;;;;16.58;14.23;;;;;;;;;;5050740;28;20055;-49
2023/12/05 07:10:58;;;;;;;18.83;16.63;;;;;;;;;;5050396;28;20479;-44
2023/12/05 07:13:24;;;;;;;16.05;14.35;;;;;;;;;;5051580;28;20178;-45
2023/12/05 07:15:50;;;;;;;16.40;14.70;;;;;;;;;;5050932;28;20454;-47
2023/12/05 07:18:16;;;;;;;16.23;14.52;;;;;;;;;;5055238;28;20046;-47
2023/12/05 07:20:42;;;;;;;16.35;14.65;;;;;;;;;;5052682;28;20048;-51
2023/12/05 07:23:08;;;;;;;17.00;15.30;;;;;;;;;;5070777;28;20028;-45
2023/12/05 07:25:34;;;;;;;16.88;15.18;;;;;;;;;;5070708;28;20024;-47
2023/12/05 07:28:00;;;;;;;16.83;15.13;;;;;;;;;;5070873;28;20047;-45
2023/12/05 07:30:26;;;;;;;20.00;17.27;;;;;;;;;;5070280;28;20028;-45
2023/12/05 07:32:52;;;;;;;16.67;14.98;;;;;;;;;;5070302;28;20027;-45
2023/12/05 07:35:18;;;;;;;17.08;15.38;;;;;;;;;;5070427;28;20024;-45
2023/12/05 07:37:44;;;;;;;17.15;15.43;;;;;;;;;;5070811;28;20124;-45
2023/12/05 07:40:10;;;;;;;17.13;15.43;;;;;;;;;;5052091;28;20439;-46
2023/12/05 07:42:36;;;;;;;17.27;15.50;;;;;;;;;;5070430;28;20052;-45
2023/12/05 07:45:04;;;;;;;17.02;15.32;;;;;;;;;;5070264;28;20055;-44
2023/12/05 07:47:30;;;;;;;16.90;15.20;;;;;;;;;;5070133;28;20020;-45
2023/12/05 07:49:56;;;;;;;17.27;15.55;;;;;;;;;;5070098;28;20417;-42
2023/12/05 07:52:22;;;;;;;17.15;15.45;;;;;;;;;;5070266;28;20039;-48
2023/12/05 07:54:48;;;;;;;17.52;15.73;;;;;;;;;;5070621;28;20352;-50
2023/12/05 07:57:21;;;;;;;17.17;15.48;;;;;;;;;;5070119;28;20048;-44
2023/12/05 07:59:47;;;;;;;17.42;15.73;;;;;;;;;;5069932;28;20025;-46
2023/12/05 08:02:13;;;;;;;17.58;15.77;;;;;;;;;;5069971;28;20017;-47
2023/12/05 08:04:41;;;;;;;17.50;15.70;;;;;;;;;;5069959;28;20028;-47
2023/12/05 08:07:07;;;;;;;17.67;15.88;;;;;;;;;;5070105;28;20017;-46
2023/12/05 08:09:33;;;;;;;17.83;16.02;;;;;;;;;;5070039;28;20035;-48
2023/12/05 08:11:59;;;;;;;17.70;15.90;;;;;;;;;;5070564;28;20032;-51
2023/12/05 08:14:26;;;;;;;17.75;15.95;;;;;;;;;;5070696;28;20445;-44
2023/12/05 08:16:52;;;;;;;18.70;16.90;;;;;;;;;;5070204;28;20096;-46
2023/12/05 08:19:18;;;;;;;18.05;16.25;;;;;;;;;;5070116;28;20102;-47
2023/12/05 08:21:44;;;;;;;18.08;16.27;;;;;;;;;;5049457;28;20028;-46
2023/12/05 08:24:10;;;;;;;17.50;15.70;;;;;;;;;;5055646;28;20495;-49
2023/12/05 08:26:36;;;;;;;17.90;16.10;;;;;;;;;;5051498;28;20083;-47
2023/12/05 08:29:02;;;;;;;18.10;16.30;;;;;;;;;;5053754;28;20036;-45
2023/12/05 08:31:28;;;;;;;17.38;15.68;;;;;;;;;;5051618;28;20036;-44
2023/12/05 08:33:54;;;;;;;18.30;16.50;;;;;;;;;;5061515;28;20079;-44
2023/12/05 08:36:20;;;;;;;17.75;15.95;;;;;;;;;;5049504;28;20510;-52
2023/12/05 08:38:46;;;;;;;17.17;15.48;;;;;;;;;;5050011;28;20108;-49
2023/12/05 08:41:19;;;;;;;17.15;15.45;;;;;;;;;;5049613;28;20043;-49
2023/12/05 08:43:46;;;;;;;17.55;15.75;;;;;;;;;;5056114;28;20048;-54
2023/12/05 08:46:12;;;;;;;16.90;15.20;;;;;;;;;;5052599;28;20487;-48
2023/12/05 08:48:38;;;;;;;17.23;15.52;;;;;;;;;;5049345;28;20086;-48
2023/12/05 08:51:04;;;;;;;17.23;15.52;;;;;;;;;;5049380;28;20080;-49
2023/12/05 08:53:30;;;;;;;17.20;15.50;;;;;;;;;;5055067;28;20469;-47
2023/12/05 08:55:56;;;;;;;16.92;15.23;;;;;;;;;;5049551;28;20211;-46
2023/12/05 08:58:22;;;;;;;21.42;19.52;;;;;;;;;;5049698;28;20029;-45
2023/12/05 09:00:48;;;;;;;16.80;15.10;;;;;;;;;;5049449;28;20029;-48
2023/12/05 09:03:14;;;;;;;16.27;14.57;;;;;;;;;;5071216;28;20020;-49
2023/12/05 09:05:40;;;;;;;16.45;14.75;;;;;;;;;;5066889;28;20107;-51
2023/12/05 09:08:06;;;;;;;16.15;14.45;;;;;;;;;;5056002;28;20395;-50
2023/12/05 09:10:32;;;;;;;17.85;15.80;;;;;;;;;;5053693;28;20082;-50
2023/12/05 09:12:58;;;;;;;16.77;15.07;;;;;;;;;;5059714;28;20428;-52
2023/12/05 09:15:24;;;;;;;16.30;14.60;;;;;;;;;;5055652;28;20063;-50
2023/12/05 09:17:50;;;;;;;16.25;14.55;;;;;;;;;;5049355;28;20025;-46
2023/12/05 09:20:18;;;;;;;16.50;14.80;;;;;;;;;;5051995;28;20116;-50
2023/12/05 09:22:44;;;;;;;16.45;14.75;;;;;;;;;;5052375;28;20033;-46
2023/12/05 09:25:10;;;;;;;17.15;15.35;;;;;;;;;;5055492;28;20033;-48
2023/12/05 09:27:36;;;;;;;16.08;14.38;;;;;;;;;;5049376;28;20025;-48
2023/12/05 09:30:02;;;;;;;16.05;14.35;;;;;;;;;;5051153;28;20099;-48
2023/12/05 09:32:28;;;;;;;16.08;14.38;;;;;;;;;;5053821;28;20029;-45
2023/12/05 09:34:54;;;;;;;15.98;14.27;;;;;;;;;;5055772;28;20107;-47
2023/12/05 09:37:20;;;;;;;15.73;14.02;;;;;;;;;;5064853;28;20017;-48
2023/12/05 09:39:46;;;;;;;15.55;13.85;;;;;;;;;;5073064;28;20052;-48
2023/12/05 09:42:13;;;;;;;15.65;13.95;;;;;;;;;;5073690;28;20483;-49
2023/12/05 09:44:42;;;;;;;15.47;13.70;;;;;;;;;;5073018;28;20024;-49
2023/12/05 09:47:10;;;;;;;15.40;13.52;;;;;;;;;;5072467;28;20033;-50
2023/12/05 09:49:36;;;;;;;17.05;15.27;;;;;;;;;;5072784;28;20043;-49
2023/12/05 09:52:02;;;;;;;15.50;13.60;;;;;;;;;;5054851;28;20031;-49
2023/12/05 09:54:29;;;;;;;15.23;13.15;;;;;;;;;;5072648;28;20021;-50
2023/12/05 09:56:58;;;;;;;15.30;13.23;;;;;;;;;;5072511;28;20035;-45
2023/12/05 09:59:24;;;;;;;15.50;13.75;;;;;;;;;;5054638;28;20031;-50
2023/12/05 10:01:56;;;;;;;15.27;13.18;;;;;;;;;;5072457;28;20077;-43
2023/12/05 10:04:22;;;;;;;15.07;12.95;;;;;;;;;;5072690;28;20406;-47
2023/12/05 10:06:48;;;;;;;15.20;13.13;;;;;;;;;;5072414;28;20028;-49
2023/12/05 10:09:20;;;;;;;15.15;13.00;;;;;;;;;;5072573;28;20387;-50
2023/12/05 10:11:47;;;;;;;15.20;13.18;;;;;;;;;;5072298;28;20021;-46
2023/12/05 10:14:13;;;;;;;15.10;12.90;;;;;;;;;;5072760;28;20047;-48
2023/12/05 10:16:39;;;;;;;14.98;12.40;;;;;;;;;;5072290;28;20130;-48
2023/12/05 10:19:06;;;;;;;15.20;12.95;;;;;;;;;;5072074;28;20111;-47
2023/12/05 10:21:32;;;;;;;15.77;14.07;;;;;;;;;;5072080;28;20445;-50
2023/12/05 10:23:59;;;;;;;15.05;12.65;;;;;;;;;;5072354;28;20108;-47
2023/12/05 10:26:25;;;;;;;14.90;12.40;;;;;;;;;;5072261;28;20064;-49
2023/12/05 10:28:51;;;;;;;14.82;12.15;;;;;;;;;;5054058;28;20052;-48
2023/12/05 10:31:21;;;;;;;14.90;12.38;;;;;;;;;;5071538;28;20107;-49
2023/12/05 10:33:50;;;;;;;14.90;12.38;;;;;;;;;;5071809;28;20077;-45
2023/12/05 10:36:16;;;;;;;15.00;12.50;;;;;;;;;;5071980;28;20052;-52
2023/12/05 10:38:46;;;;;;;14.90;12.27;;;;;;;;;;5071923;28;20040;-49
2023/12/05 10:41:21;;;;;;;14.80;12.27;;;;;;;;;;5071200;28;20033;-50
2023/12/05 10:43:55;;;;;;;15.00;12.45;;;;;;;;;;5071968;28;20025;-48
2023/12/05 10:46:21;;;;;;;14.70;11.88;;;;;;;;;;5070951;28;20017;-46
2023/12/05 10:48:48;;;;;;;14.75;12.00;;;;;;;;;;5071789;28;20498;-49
2023/12/05 10:51:14;;;;;;;14.70;11.70;;;;;;;;;;5053758;28;20153;-50
2023/12/05 10:53:40;;;;;;;14.65;11.60;;;;;;;;;;5071805;28;20025;-49
2023/12/05 10:56:16;;;;;;;14.70;11.60;;;;;;;;;;5071724;28;20230;-46
2023/12/05 10:58:43;;;;;;;14.65;11.60;;;;;;;;;;5071602;28;20087;-46
2023/12/05 11:01:12;;;;;;;14.80;11.80;;;;;;;;;;5071225;28;20031;-47
2023/12/05 11:03:39;;;;;;;14.60;11.45;;;;;;;;;;5053737;28;20036;-49
2023/12/05 11:06:08;;;;;;;14.80;11.88;;;;;;;;;;5071724;28;20214;-47
2023/12/05 11:08:35;;;;;;;14.90;12.25;;;;;;;;;;5071545;28;20389;-47
2023/12/05 11:11:04;;;;;;;14.85;12.07;;;;;;;;;;5071319;28;20504;-47
2023/12/05 11:13:32;;;;;;;14.60;11.52;;;;;;;;;;5071624;28;20482;-50
2023/12/05 11:16:00;;;;;;;14.80;11.90;;;;;;;;;;5071329;28;20040;-48
2023/12/05 11:18:47;;;;;;;14.70;11.75;;;;;;;;;;5071001;28;20329;-49
2023/12/05 11:21:16;;;;;;;14.70;11.80;;;;;;;;;;5052735;28;20111;-48
2023/12/05 11:23:42;;;;;;;14.70;11.57;;;;;;;;;;5071431;28;20085;-51
2023/12/05 11:26:08;;;;;;;14.70;11.60;;;;;;;;;;5071551;28;20029;-52
2023/12/05 11:28:47;;;;;;;14.68;11.63;;;;;;;;;;5070798;28;20031;-50
2023/12/05 11:31:45;;;;;;;14.90;12.20;;;;;;;;;;5070551;28;20103;-47
2023/12/05 11:34:14;;;;;;;14.90;12.32;;;;;;;;;;5036612;28;20498;-49
2023/12/05 11:37:16;;;;;;;14.68;11.57;;;;;;;;;;5070748;28;20099;-51
2023/12/05 11:39:42;;;;;;;14.70;11.60;;;;;;;;;;5042638;22;20044;-52
2023/12/05 11:42:11;;;;;;;14.70;11.65;;;;;;;;;;5069471;28;20036;-50
2023/12/05 11:44:38;;;;;;;14.63;11.48;;;;;;;;;;5070021;28;20020;-51
2023/12/05 11:47:09;;;;;;;14.70;11.77;;;;;;;;;;5053291;28;20108;-50
2023/12/05 11:49:39;;;;;;;14.80;11.85;;;;;;;;;;5031632;28;20039;-54
2023/12/05 11:52:09;;;;;;;14.57;11.30;;;;;;;;;;5049883;28;20027;-50
2023/12/05 11:54:35;;;;;;;15.20;12.40;;;;;;;;;;5050032;28;20399;-50
2023/12/05 11:57:18;;;;;;;14.75;11.95;;;;;;;;;;5050039;28;20028;-51
2023/12/05 11:59:45;;;;;;;14.70;11.90;;;;;;;;;;5049983;28;20128;-52
2023/12/05 12:02:12;;;;;;;14.77;11.82;;;;;;;;;;5052798;28;20015;-52
2023/12/05 12:04:38;;;;;;;14.77;11.88;;;;;;;;;;5052898;28;20522;-51
2023/12/05 12:07:04;;;;;;;14.73;11.85;;;;;;;;;;5032344;28;20487;-49
2023/12/05 12:09:36;;;;;;;14.70;11.77;;;;;;;;;;5032347;28;20033;-46
2023/12/05 12:12:03;;;;;;;14.80;12.00;;;;;;;;;;5050153;28;20029;-51
2023/12/05 12:14:30;;;;;;;14.70;11.98;;;;;;;;;;5037633;28;20059;-49
2023/12/05 12:16:59;;;;;;;14.90;12.30;;;;;;;;;;5049396;28;20056;-49
2023/12/05 12:19:25;;;;;;;14.90;12.38;;;;;;;;;;5031256;28;20524;-50
2023/12/05 12:21:51;;;;;;;15.00;12.55;;;;;;;;;;5048166;28;20051;-51
2023/12/05 12:24:19;;;;;;;15.00;12.45;;;;;;;;;;5031176;28;20049;-51
2023/12/05 12:26:55;;;;;;;15.10;12.77;;;;;;;;;;5031975;28;20112;-48
2023/12/05 12:29:21;;;;;;;15.13;12.80;;;;;;;;;;5049574;28;20022;-52
2023/12/05 12:31:48;;;;;;;15.10;12.70;;;;;;;;;;5049492;28;20045;-52
2023/12/05 12:34:21;;;;;;;14.98;12.77;;;;;;;;;;5049709;28;20021;-48
2023/12/05 12:36:48;;;;;;;15.10;12.80;;;;;;;;;;5049655;28;20429;-52
2023/12/05 12:39:16;;;;;;;15.07;12.77;;;;;;;;;;5049434;28;20066;-50
2023/12/05 12:41:42;;;;;;;15.00;12.65;;;;;;;;;;5048852;28;20045;-53
2023/12/05 12:44:09;;;;;;;15.07;12.88;;;;;;;;;;5049230;28;20061;-52
2023/12/05 12:46:35;;;;;;;15.00;12.90;;;;;;;;;;5031126;28;20025;-53
2023/12/05 12:49:03;;;;;;;15.10;13.05;;;;;;;;;;5049316;28;20704;-53
2023/12/05 12:51:30;;;;;;;24.50;21.90;;;;;;;;;;5031250;28;20115;-45
2023/12/05 12:53:56;;;;;;;15.10;12.80;;;;;;;;;;5031472;28;20036;-48
2023/12/05 12:56:23;;;;;;;14.95;12.52;;;;;;;;;;5049279;28;20105;-52
2023/12/05 12:58:49;;;;;;;14.90;12.50;;;;;;;;;;5031660;28;20053;-49
2023/12/05 13:01:15;;;;;;;14.90;12.48;;;;;;;;;;5049012;28;20102;-53
2023/12/05 13:03:44;;;;;;;15.10;12.98;;;;;;;;;;5049228;28;20029;-51
2023/12/05 13:06:11;;;;;;;17.75;16.05;;;;;;;;;;5049490;28;20025;-54
2023/12/05 13:08:39;;;;;;;15.02;12.70;;;;;;;;;;5033090;28;20060;-51
2023/12/05 13:11:05;;;;;;;15.10;12.95;;;;;;;;;;5052909;28;20025;-49
2023/12/05 13:13:31;;;;;;;15.00;12.93;;;;;;;;;;5035407;28;20104;-51
2023/12/05 13:15:58;;;;;;;15.07;12.82;;;;;;;;;;5053053;28;20029;-54
2023/12/05 13:18:24;;;;;;;15.02;12.85;;;;;;;;;;5035336;28;20028;-54
2023/12/05 13:20:52;;;;;;;15.10;13.05;;;;;;;;;;5052398;28;20104;-50
2023/12/05 13:23:21;;;;;;;15.20;12.95;;;;;;;;;;5034759;28;20111;-51
2023/12/05 13:25:48;;;;;;;15.00;12.70;;;;;;;;;;5053076;28;20538;-49
2023/12/05 13:28:14;;;;;;;15.00;12.68;;;;;;;;;;5052905;28;20094;-50
2023/12/05 13:30:41;;;;;;;14.80;12.25;;;;;;;;;;5052593;28;20086;-49
2023/12/05 13:33:07;;;;;;;14.88;12.35;;;;;;;;;;5052730;28;20451;-52
2023/12/05 13:35:33;;;;;;;14.93;12.52;;;;;;;;;;5052643;28;20025;-50
2023/12/05 13:37:59;;;;;;;15.68;13.77;;;;;;;;;;5035001;28;20494;-53
2023/12/05 13:40:25;;;;;;;14.85;12.45;;;;;;;;;;5052244;28;20392;-54
2023/12/05 13:42:51;;;;;;;14.88;12.38;;;;;;;;;;5035230;28;20162;-51
2023/12/05 13:45:18;;;;;;;15.00;12.80;;;;;;;;;;5052887;28;20060;-50
2023/12/05 13:47:44;;;;;;;15.00;12.70;;;;;;;;;;5052965;28;20594;-50
2023/12/05 13:50:10;;;;;;;14.90;12.38;;;;;;;;;;5052950;28;20159;-51
2023/12/05 13:52:36;;;;;;;14.77;12.23;;;;;;;;;;5052458;28;20479;-50
2023/12/05 13:55:03;;;;;;;15.10;12.70;;;;;;;;;;5052501;28;20040;-48
2023/12/05 13:57:31;;;;;;;15.02;12.82;;;;;;;;;;5052635;28;20567;-47
2023/12/05 13:59:57;;;;;;;15.02;12.90;;;;;;;;;;5052048;28;20494;-48
2023/12/05 14:02:23;;;;;;;15.30;13.40;;;;;;;;;;5052141;28;20360;-49
2023/12/05 14:04:50;;;;;;;15.10;13.00;;;;;;;;;;5052476;28;20506;-50
2023/12/05 14:07:16;;;;;;;15.30;13.40;;;;;;;;;;5052131;28;20020;-51
2023/12/05 14:09:42;;;;;;;15.13;13.05;;;;;;;;;;5051912;28;20108;-50
2023/12/05 14:12:11;;;;;;;15.10;13.25;;;;;;;;;;5052030;28;20033;-49
2023/12/05 14:14:41;;;;;;;15.30;13.40;;;;;;;;;;5052586;28;20021;-47
2023/12/05 14:17:07;;;;;;;15.05;12.95;;;;;;;;;;5034721;28;20420;-47